createdAt,value
2022-08-12T00:00:35.183Z,62.56
2022-08-12T00:03:21.370Z,62.99
2022-08-12T00:06:08.854Z,63.02
2022-08-12T00:08:56.515Z,63.35
2022-08-12T00:11:44.296Z,62.98
2022-08-12T00:14:30.658Z,63.20
2022-08-12T00:17:17.313Z,63.86
2022-08-12T00:20:03.366Z,64.30
2022-08-12T00:22:58.703Z,64.16
2022-08-12T00:26:22.224Z,64.56
2022-08-12T00:29:12.017Z,64.60
2022-08-12T00:32:00.279Z,64.96
2022-08-12T00:34:49.330Z,64.87
2022-08-12T00:37:36.641Z,64.88
2022-08-12T00:40:24.704Z,64.70
2022-08-12T00:42:53.324Z,66.01
2022-08-12T00:45:21.234Z,66.70
2022-08-12T00:47:52.196Z,65.65
2022-08-12T00:50:22.310Z,66.73
2022-08-12T00:52:52.258Z,67.05
2022-08-12T00:55:19.984Z,66.58
2022-08-12T00:57:50.477Z,67.40
2022-08-12T01:00:25.038Z,67.64
2022-08-12T01:02:57.419Z,67.17
2022-08-12T01:05:44.410Z,68.17
2022-08-12T01:08:50.653Z,67.55
2022-08-12T01:11:32.669Z,67.32
2022-08-12T01:14:01.732Z,68.46
2022-08-12T01:16:29.760Z,68.90
2022-08-12T01:18:58.759Z,68.99
2022-08-12T01:21:55.142Z,69.44
2022-08-12T01:24:56.711Z,68.19
2022-08-12T01:27:25.571Z,68.53
2022-08-12T01:29:54.422Z,69.60
2022-08-12T01:32:23.818Z,69.25
2022-08-12T01:35:07.730Z,69.13
2022-08-12T01:37:58.317Z,69.66
2022-08-12T01:40:38.311Z,69.64
2022-08-12T01:43:09.597Z,70.40
2022-08-12T01:45:47.112Z,70.34
2022-08-12T01:48:17.071Z,71.07
2022-08-12T01:51:05.275Z,71.60
2022-08-12T01:53:53.431Z,70.24
2022-08-12T01:56:25.269Z,71.86
2022-08-12T01:59:15.748Z,71.28
2022-08-12T02:01:45.597Z,70.89
2022-08-12T02:04:40.984Z,71.38
2022-08-12T02:08:04.898Z,71.40
2022-08-12T02:11:10.762Z,71.92
2022-08-12T02:14:00.824Z,72.07
2022-08-12T02:16:54.066Z,72.65
2022-08-12T02:19:42.274Z,72.89
2022-08-12T02:22:38.847Z,72.14
2022-08-12T02:25:29.345Z,72.79
2022-08-12T02:27:56.759Z,73.32
2022-08-12T02:30:41.710Z,72.22
2022-08-12T02:33:11.150Z,72.10
2022-08-12T02:35:39.680Z,71.65
2022-08-12T02:38:10.942Z,72.74
2022-08-12T02:40:42.809Z,72.91
2022-08-12T02:43:21.723Z,73.48
2022-08-12T02:46:03.745Z,73.45
2022-08-12T02:48:37.745Z,73.87
2022-08-12T02:51:09.285Z,73.43
2022-08-12T02:53:37.976Z,74.39
2022-08-12T02:56:06.554Z,74.59
2022-08-12T02:58:35.505Z,75.04
2022-08-12T03:01:05.438Z,75.24
2022-08-12T03:03:34.386Z,74.81
2022-08-12T03:06:08.211Z,74.21
2022-08-12T03:08:40.748Z,74.69
2022-08-12T03:11:15.698Z,74.96
2022-08-12T03:13:51.268Z,75.37
2022-08-12T03:16:20.624Z,75.81
2022-08-12T03:18:49.190Z,75.44
2022-08-12T03:21:52.278Z,75.07
2022-08-12T03:24:08.893Z,76.13
2022-08-12T03:26:37.347Z,75.09
2022-08-12T03:29:06.835Z,75.21
2022-08-12T03:31:34.197Z,75.24
2022-08-12T03:34:04.741Z,75.58
2022-08-12T03:36:35.037Z,76.07
2022-08-12T03:39:17.738Z,76.04
2022-08-12T03:41:59.364Z,75.61
2022-08-12T03:44:53.471Z,75.83
2022-08-12T03:47:58.751Z,76.72
2022-08-12T03:50:44.967Z,76.96
2022-08-12T03:53:30.750Z,76.14
2022-08-12T03:56:16.349Z,76.43
2022-08-12T03:59:02.529Z,76.62
2022-08-12T04:01:29.994Z,75.92
2022-08-12T04:03:58.012Z,75.61
2022-08-12T04:06:34.917Z,76.04
2022-08-12T04:09:16.641Z,76.99
2022-08-12T04:12:04.505Z,76.88
2022-08-12T04:14:32.948Z,77.89
2022-08-12T04:17:01.293Z,77.76
2022-08-12T04:19:29.823Z,77.28
2022-08-12T04:22:02.194Z,76.80
2022-08-12T04:24:35.202Z,77.56
2022-08-12T04:27:08.976Z,78.05
2022-08-12T04:30:16.817Z,78.15
2022-08-12T04:32:25.901Z,77.09
2022-08-12T04:34:53.841Z,77.59
2022-08-12T04:37:20.993Z,77.52
2022-08-12T04:39:48.775Z,77.23
2022-08-12T04:42:16.192Z,76.88
2022-08-12T04:44:44.325Z,77.23
2022-08-12T04:47:16.504Z,77.43
2022-08-12T04:49:46.578Z,77.03
2022-08-12T04:52:14.415Z,77.07
2022-08-12T04:54:43.746Z,77.52
2022-08-12T04:57:11.125Z,77.50
2022-08-12T04:59:48.191Z,78.19
2022-08-12T05:02:21.302Z,78.14
2022-08-12T05:04:51.723Z,77.84
2022-08-12T05:07:20.164Z,78.68
2022-08-12T05:09:58.839Z,76.97
2022-08-12T05:12:33.968Z,76.35
2022-08-12T05:15:01.278Z,77.21
2022-08-12T05:17:28.718Z,76.11
2022-08-12T05:19:57.500Z,76.10
2022-08-12T05:22:26.692Z,75.15
2022-08-12T05:24:53.926Z,75.13
2022-08-12T05:27:22.402Z,74.16
2022-08-12T05:30:06.161Z,74.10
2022-08-12T05:32:37.085Z,73.33
2022-08-12T05:35:06.791Z,73.29
2022-08-12T05:37:35.350Z,72.98
2022-08-12T05:40:09.949Z,71.73
2022-08-12T05:42:38.373Z,72.11
2022-08-12T05:45:06.848Z,71.66
2022-08-12T05:47:52.269Z,71.82
2022-08-12T05:50:21.204Z,71.83
2022-08-12T05:52:48.449Z,71.04
2022-08-12T05:55:15.700Z,70.07
2022-08-12T05:57:48.391Z,68.87
2022-08-12T06:00:16.578Z,68.68
2022-08-12T06:02:46.393Z,68.98
2022-08-12T06:05:13.903Z,67.93
2022-08-12T06:08:02.242Z,67.42
2022-08-12T06:10:32.042Z,67.50
2022-08-12T06:13:02.404Z,67.17
2022-08-12T06:15:29.918Z,65.98
2022-08-12T06:18:13.645Z,65.22
2022-08-12T06:20:46.447Z,65.19
2022-08-12T06:23:15.291Z,64.79
2022-08-12T06:25:43.540Z,64.48
2022-08-12T06:28:17.416Z,64.62
2022-08-12T06:30:53.075Z,63.29
2022-08-12T06:33:57.616Z,62.38
2022-08-12T06:36:21.708Z,61.75
2022-08-12T06:38:49.302Z,61.51
2022-08-12T06:41:35.699Z,60.73
2022-08-12T06:44:06.400Z,60.98
2022-08-12T06:46:36.770Z,59.81
2022-08-12T06:49:04.559Z,59.75
2022-08-12T06:51:32.237Z,59.53
2022-08-12T06:54:01.009Z,58.90
2022-08-12T06:56:59.659Z,59.64
2022-08-12T06:59:15.897Z,58.95
2022-08-12T07:01:51.164Z,59.03
2022-08-12T07:07:09.244Z,58.60
2022-08-12T07:10:03.965Z,58.05
2022-08-12T07:12:24.614Z,57.06
2022-08-12T07:14:59.311Z,55.81
2022-08-12T07:17:31.529Z,55.09
2022-08-12T07:20:03.917Z,54.44
2022-08-12T07:22:33.066Z,52.98
2022-08-12T07:25:18.993Z,53.15
2022-08-12T07:27:46.623Z,51.61
2022-08-12T07:30:14.380Z,51.33
2022-08-12T07:32:41.513Z,50.83
2022-08-12T07:35:08.824Z,50.58
2022-08-12T07:37:41.480Z,50.02
2022-08-12T07:40:11.593Z,48.65
2022-08-12T07:42:41.635Z,47.06
2022-08-12T07:45:09.426Z,46.75
2022-08-12T07:47:37.877Z,46.14
2022-08-12T07:50:09.513Z,44.84
2022-08-12T07:52:39.131Z,45.33
2022-08-12T07:55:06.900Z,44.75
2022-08-12T07:57:35.581Z,44.78
2022-08-12T08:00:05.137Z,43.10
2022-08-12T08:02:35.759Z,42.48
2022-08-12T08:05:03.977Z,41.93
2022-08-12T08:07:31.352Z,41.59
2022-08-12T08:10:10.796Z,41.58
2022-08-12T08:12:53.459Z,42.04
2022-08-12T08:15:51.213Z,39.90
2022-08-12T08:18:25.861Z,40.67
2022-08-12T08:20:56.256Z,40.20
2022-08-12T08:23:43.773Z,39.00
2022-08-12T08:26:15.487Z,38.43
2022-08-12T08:28:43.336Z,38.26
2022-08-12T08:31:10.535Z,39.49
2022-08-12T08:34:05.533Z,38.24
2022-08-12T08:36:24.807Z,39.27
2022-08-12T08:38:57.742Z,37.58
2022-08-12T08:42:15.211Z,36.04
2022-08-12T08:44:38.164Z,36.39
2022-08-12T08:47:07.274Z,36.05
2022-08-12T08:49:37.266Z,36.55
2022-08-12T08:52:10.584Z,35.81
2022-08-12T08:54:38.021Z,36.88
2022-08-12T08:57:08.195Z,35.56
2022-08-12T08:59:35.831Z,36.44
2022-08-12T09:02:03.306Z,35.36
2022-08-12T09:05:13.031Z,35.60
2022-08-12T09:07:51.944Z,34.45
2022-08-12T09:13:23.182Z,33.75
2022-08-12T09:15:55.858Z,33.91
2022-08-12T09:18:26.495Z,33.06
2022-08-12T09:20:58.149Z,34.70
2022-08-12T09:23:57.036Z,33.39
2022-08-12T09:26:18.935Z,33.00
2022-08-12T09:32:07.820Z,33.00
2022-08-12T09:34:29.834Z,33.39
2022-08-12T09:37:02.314Z,33.26
2022-08-12T09:40:06.209Z,33.08
2022-08-12T09:42:43.610Z,33.29
2022-08-12T09:46:07.014Z,32.26
2022-08-12T09:48:20.023Z,32.07
2022-08-12T09:50:51.972Z,32.42
2022-08-12T09:53:36.159Z,33.57
2022-08-12T09:56:59.309Z,32.50
2022-08-12T09:59:00.241Z,31.79
2022-08-12T10:01:35.042Z,31.80
2022-08-12T10:04:19.438Z,30.63
2022-08-12T10:06:55.231Z,33.11
2022-08-12T10:09:39.128Z,30.93
2022-08-12T10:12:33.263Z,31.43
2022-08-12T10:15:04.190Z,30.51
2022-08-12T10:17:33.372Z,30.58
2022-08-12T10:20:01.746Z,31.50
2022-08-12T10:22:39.495Z,30.57
2022-08-12T10:26:34.179Z,31.72
2022-08-12T10:28:38.447Z,32.29
2022-08-12T10:31:06.423Z,33.08
2022-08-12T10:33:55.559Z,31.81
2022-08-12T10:36:36.195Z,31.46
2022-08-12T10:40:06.169Z,31.54
2022-08-12T10:42:15.692Z,32.34
2022-08-12T10:44:46.804Z,31.92
2022-08-12T10:48:01.116Z,31.64
2022-08-12T10:50:33.750Z,31.52
2022-08-12T10:52:56.920Z,30.91
2022-08-12T10:55:26.136Z,31.03
2022-08-12T10:58:14.660Z,30.16
2022-08-12T11:00:45.250Z,30.63
2022-08-12T11:04:31.293Z,32.00
2022-08-12T11:07:06.265Z,31.63
2022-08-12T11:08:58.862Z,30.22
2022-08-12T11:12:34.547Z,32.06
2022-08-12T11:14:50.260Z,30.35
2022-08-12T11:17:42.899Z,31.23
2022-08-12T11:20:06.245Z,30.81
2022-08-12T11:22:35.099Z,30.72
2022-08-12T11:25:02.219Z,31.74
2022-08-12T11:27:37.825Z,31.25
2022-08-12T11:30:30.443Z,30.17
2022-08-12T11:32:52.709Z,29.21
2022-08-12T11:35:20.949Z,28.83
2022-08-12T11:37:57.894Z,29.42
2022-08-12T11:40:26.071Z,28.78
2022-08-12T11:43:17.171Z,29.60
2022-08-12T11:45:46.936Z,32.16
2022-08-12T11:48:15.556Z,29.19
2022-08-12T11:50:43.919Z,28.96
2022-08-12T11:53:58.161Z,29.04
2022-08-12T11:55:58.178Z,28.16
2022-08-12T11:59:38.230Z,27.92
2022-08-12T12:02:01.208Z,29.50
2022-08-12T12:03:59.658Z,28.96
2022-08-12T12:06:27.786Z,27.97
2022-08-12T12:08:55.270Z,28.99
2022-08-12T12:11:22.894Z,29.05
2022-08-12T12:14:07.393Z,28.28
2022-08-12T12:16:39.621Z,30.00
2022-08-12T12:19:08.805Z,27.78
2022-08-12T12:21:47.627Z,29.56
2022-08-12T12:24:21.866Z,28.33
2022-08-12T12:26:59.627Z,28.67
2022-08-12T12:30:18.783Z,27.71
2022-08-12T12:32:17.323Z,29.24
2022-08-12T12:35:14.657Z,29.70
2022-08-12T12:38:05.458Z,27.96
2022-08-12T12:40:22.362Z,28.32
2022-08-12T12:43:01.687Z,29.02
2022-08-12T12:45:34.159Z,28.85
2022-08-12T12:48:07.963Z,28.14
2022-08-12T12:50:42.299Z,27.82
2022-08-12T12:54:05.294Z,27.68
2022-08-12T12:56:06.790Z,28.34
2022-08-12T12:58:34.009Z,27.57
2022-08-12T13:01:04.956Z,29.78
2022-08-12T13:03:54.107Z,26.78
2022-08-12T13:06:25.502Z,26.51
2022-08-12T13:09:02.564Z,26.66
2022-08-12T13:11:41.172Z,26.23
2022-08-12T13:14:28.996Z,26.85
2022-08-12T13:17:02.314Z,28.75
2022-08-12T13:19:37.931Z,25.80
2022-08-12T13:22:18.175Z,25.04
2022-08-12T13:24:54.731Z,25.13
2022-08-12T13:27:35.282Z,26.89
2022-08-12T13:30:12.960Z,25.98
2022-08-12T13:32:41.837Z,25.86
2022-08-12T13:35:20.341Z,26.93
2022-08-12T13:37:57.978Z,29.04
2022-08-12T13:40:28.875Z,25.78
2022-08-12T13:43:01.768Z,25.11
2022-08-12T13:45:31.004Z,26.08
2022-08-12T13:48:00.287Z,30.78
2022-08-12T13:50:33.609Z,26.21
2022-08-12T13:53:23.271Z,27.23
2022-08-12T13:55:59.289Z,25.93
2022-08-12T13:58:30.352Z,26.19
2022-08-12T14:00:58.663Z,29.82
2022-08-12T14:03:28.064Z,26.23
2022-08-12T14:06:04.606Z,26.03
2022-08-12T14:08:34.227Z,27.73
2022-08-12T14:11:02.178Z,26.78
2022-08-12T14:14:03.541Z,26.60
2022-08-12T14:16:37.606Z,26.62
2022-08-12T14:19:21.784Z,27.51
2022-08-12T14:22:00.741Z,27.40
2022-08-12T14:24:40.616Z,26.72
2022-08-12T14:27:13.259Z,27.47
2022-08-12T14:30:04.995Z,28.91
2022-08-12T14:32:39.979Z,26.84
2022-08-12T14:35:09.417Z,26.07
2022-08-12T14:37:56.235Z,26.03
2022-08-12T14:40:29.478Z,29.95
2022-08-12T14:42:58.625Z,27.25
2022-08-12T14:45:44.506Z,26.69
2022-08-12T14:48:18.591Z,25.67
2022-08-12T14:51:09.236Z,24.80
2022-08-12T14:59:57.517Z,26.23
2022-08-12T15:02:20.319Z,24.81
2022-08-12T15:04:52.253Z,24.24
2022-08-12T15:07:33.765Z,24.72
2022-08-12T15:10:06.591Z,25.53
2022-08-12T15:12:34.617Z,25.96
2022-08-12T15:15:02.641Z,26.84
2022-08-12T15:17:37.970Z,25.04
2022-08-12T15:20:32.793Z,27.18
2022-08-12T15:23:05.727Z,24.10
2022-08-12T15:25:47.754Z,24.72
2022-08-12T15:28:22.502Z,24.29
2022-08-12T15:30:54.542Z,27.60
2022-08-12T15:33:24.226Z,24.80
2022-08-12T15:35:53.047Z,24.07
2022-08-12T15:38:24.778Z,24.04
2022-08-12T15:40:53.400Z,23.51
2022-08-12T15:43:51.433Z,25.27
2022-08-12T15:46:15.414Z,25.31
2022-08-12T15:48:46.929Z,25.29
2022-08-12T15:51:59.747Z,23.55
2022-08-12T15:54:35.212Z,24.77
2022-08-12T15:57:05.659Z,23.25
2022-08-12T15:59:51.476Z,22.87
2022-08-12T16:02:26.677Z,23.95
2022-08-12T16:04:54.508Z,23.47
2022-08-12T16:07:29.881Z,22.11
2022-08-12T16:10:05.917Z,22.10
2022-08-12T16:12:54.269Z,21.77
2022-08-12T16:15:26.201Z,21.86
2022-08-12T16:18:14.458Z,20.40
2022-08-12T16:20:46.762Z,20.28
2022-08-12T16:23:26.975Z,19.84
2022-08-12T16:26:14.258Z,18.64
2022-08-12T16:28:44.098Z,18.62
2022-08-12T16:31:23.341Z,17.97
2022-08-12T16:33:59.089Z,19.29
2022-08-12T16:36:30.995Z,17.60
2022-08-12T16:39:01.811Z,19.38
2022-08-12T16:41:37.915Z,17.58
2022-08-12T16:44:08.686Z,17.87
2022-08-12T16:46:37.537Z,17.44
2022-08-12T16:49:13.100Z,17.85
2022-08-12T16:51:46.711Z,17.49
2022-08-12T16:54:26.649Z,18.25
2022-08-12T16:57:05.542Z,18.08
2022-08-12T16:59:53.468Z,18.32
2022-08-12T17:02:31.766Z,17.92
2022-08-12T17:05:05.008Z,17.86
2022-08-12T17:07:43.519Z,17.58
2022-08-12T17:10:13.409Z,18.20
2022-08-12T17:12:45.309Z,16.70
2022-08-12T17:15:41.325Z,17.56
2022-08-12T17:18:39.543Z,18.90
2022-08-12T17:20:49.447Z,19.12
2022-08-12T17:23:18.131Z,18.29
2022-08-12T17:25:52.912Z,18.76
2022-08-12T17:28:21.301Z,19.05
2022-08-12T17:30:51.290Z,18.45
2022-08-12T17:33:27.873Z,18.83
2022-08-12T17:36:02.863Z,18.73
2022-08-12T17:38:30.593Z,19.17
2022-08-12T17:40:58.663Z,20.07
2022-08-12T17:43:54.797Z,22.95
2022-08-12T17:46:23.829Z,24.14
2022-08-12T17:48:59.487Z,26.74
2022-08-12T17:51:31.514Z,26.56
2022-08-12T17:54:05.785Z,26.33
2022-08-12T17:56:41.243Z,28.09
2022-08-12T17:59:12.620Z,27.24
2022-08-12T18:01:45.372Z,27.75
2022-08-12T18:04:21.495Z,28.71
2022-08-12T18:06:51.884Z,27.99
2022-08-12T18:09:20.745Z,27.99
2022-08-12T18:12:08.303Z,28.24
2022-08-12T18:14:38.083Z,29.68
2022-08-12T18:17:09.901Z,29.87
2022-08-12T18:20:03.831Z,29.13
2022-08-12T18:22:31.810Z,29.03
2022-08-12T18:25:03.641Z,29.31
2022-08-12T18:27:46.689Z,29.30
2022-08-12T18:30:20.813Z,29.18
2022-08-12T18:33:04.998Z,30.09
2022-08-12T18:35:47.690Z,30.06
2022-08-12T18:38:22.693Z,29.93
2022-08-12T18:41:21.679Z,30.69
2022-08-12T18:44:02.991Z,30.44
2022-08-12T18:46:47.289Z,31.05
2022-08-12T18:49:20.049Z,31.24
2022-08-12T18:52:02.324Z,30.64
2022-08-12T18:54:35.118Z,31.38
2022-08-12T18:57:19.737Z,31.51
2022-08-12T19:00:02.265Z,32.02
2022-08-12T19:02:36.552Z,31.70
2022-08-12T19:05:10.588Z,31.86
2022-08-12T19:08:01.186Z,32.08
2022-08-12T19:10:32.231Z,32.34
2022-08-12T19:13:24.205Z,32.34
2022-08-12T19:15:54.507Z,32.38
2022-08-12T19:18:29.308Z,32.74
2022-08-12T19:20:58.789Z,32.93
2022-08-12T19:23:35.240Z,33.19
2022-08-12T19:26:05.072Z,33.66
2022-08-12T19:28:34.430Z,35.94
2022-08-12T19:31:57.241Z,38.57
2022-08-12T19:36:06.551Z,37.79
2022-08-12T19:38:04.088Z,37.33
2022-08-12T19:40:31.833Z,37.50
2022-08-12T19:43:18.842Z,37.77
2022-08-12T19:45:50.495Z,37.96
2022-08-12T19:48:20.086Z,38.01
2022-08-12T19:50:52.533Z,39.14
2022-08-12T19:53:22.843Z,38.96
2022-08-12T19:55:55.317Z,39.64
2022-08-12T19:58:24.219Z,39.83
2022-08-12T20:00:53.292Z,39.59
2022-08-12T20:03:40.422Z,39.65
2022-08-12T20:06:15.277Z,39.63
2022-08-12T20:08:48.952Z,39.78
2022-08-12T20:12:14.441Z,40.66
2022-08-12T20:14:17.992Z,40.61
2022-08-12T20:16:52.637Z,40.77
2022-08-12T20:19:52.114Z,41.33
2022-08-12T20:22:24.736Z,41.86
2022-08-12T20:25:02.174Z,41.98
2022-08-12T20:28:02.974Z,41.90
2022-08-12T20:30:52.322Z,42.54
2022-08-12T20:33:16.728Z,42.83
2022-08-12T20:36:14.432Z,43.25
2022-08-12T20:38:38.190Z,43.51
2022-08-12T20:41:16.212Z,43.68
2022-08-12T20:43:50.639Z,44.13
2022-08-12T20:46:19.930Z,44.38
2022-08-12T20:48:54.325Z,45.04
2022-08-12T20:51:21.837Z,44.58
2022-08-12T20:53:53.940Z,45.00
2022-08-12T20:56:36.823Z,45.05
2022-08-12T20:59:19.926Z,44.78
2022-08-12T21:01:48.517Z,45.23
2022-08-12T21:04:37.484Z,45.81
2022-08-12T21:07:09.254Z,46.34
2022-08-12T21:09:41.525Z,46.43
2022-08-12T21:12:28.178Z,46.92
2022-08-12T21:15:23.634Z,47.04
2022-08-12T21:18:11.449Z,47.64
2022-08-12T21:20:54.617Z,47.90
2022-08-12T21:23:22.695Z,48.19
2022-08-12T21:25:56.597Z,48.15
2022-08-12T21:28:30.862Z,47.77
2022-08-12T21:32:35.917Z,47.54
2022-08-12T21:34:07.036Z,48.72
2022-08-12T21:36:39.520Z,48.49
2022-08-12T21:39:21.282Z,49.29
2022-08-12T21:41:51.382Z,49.40
2022-08-12T21:45:46.020Z,48.63
2022-08-12T21:47:21.070Z,49.39
2022-08-12T21:50:04.272Z,50.09
2022-08-12T21:52:40.932Z,49.02
2022-08-12T21:55:18.403Z,48.40
2022-08-12T21:57:53.241Z,49.23
2022-08-12T22:00:33.229Z,49.55
2022-08-12T22:04:04.262Z,49.49
2022-08-12T22:06:25.929Z,49.50
2022-08-12T22:09:03.477Z,50.04
2022-08-12T22:11:41.443Z,50.29
2022-08-12T22:14:21.656Z,49.91
2022-08-12T22:16:51.242Z,50.76
2022-08-12T22:19:19.583Z,50.70
2022-08-12T22:21:48.348Z,51.37
2022-08-12T22:24:25.889Z,52.02
2022-08-12T22:26:55.790Z,52.05
2022-08-12T22:29:42.519Z,51.92
2022-08-12T22:32:11.561Z,50.98
2022-08-12T22:34:39.437Z,52.03
2022-08-12T22:37:11.552Z,52.66
2022-08-12T22:39:49.092Z,52.33
2022-08-12T22:42:35.810Z,53.00
2022-08-12T22:45:23.345Z,53.67
2022-08-12T22:47:54.913Z,52.61
2022-08-12T22:50:27.523Z,52.73
2022-08-12T22:53:14.884Z,53.76
2022-08-12T22:55:59.960Z,54.12
2022-08-12T22:58:33.655Z,53.75
2022-08-12T23:01:02.444Z,55.30
2022-08-12T23:03:48.116Z,54.30
2022-08-12T23:06:21.169Z,56.63
2022-08-12T23:08:48.462Z,56.21
2022-08-12T23:11:17.814Z,55.98
2022-08-12T23:13:54.927Z,56.28
2022-08-12T23:16:31.554Z,55.73
2022-08-12T23:19:10.638Z,55.80
2022-08-12T23:22:04.513Z,55.65
2022-08-12T23:24:35.630Z,54.79
2022-08-12T23:27:22.376Z,55.83
2022-08-12T23:30:17.593Z,55.62
2022-08-12T23:32:37.139Z,54.75
2022-08-12T23:35:06.786Z,55.34
2022-08-12T23:37:34.336Z,56.52
2022-08-12T23:40:17.898Z,56.07
2022-08-12T23:42:46.760Z,55.05
2022-08-12T23:45:20.680Z,55.87
2022-08-12T23:48:00.800Z,55.33
2022-08-12T23:50:33.852Z,55.39
2022-08-12T23:53:22.716Z,57.71
2022-08-12T23:55:50.635Z,57.36
2022-08-12T23:58:26.440Z,57.57
